sensor_id;sensor_type;location;lat;lon;timestamp;pressure;altitude;pressure_sealevel;temperature;humidity
27643;BME280;15053;48.618;10.024;2023-01-26T00:01:20;94622.63;;;0.51;92.94
27643;BME280;15053;48.618;10.024;2023-01-26T00:03:47;94621.41;;;0.54;93.38
27643;BME280;15053;48.618;10.024;2023-01-26T00:06:17;94618.63;;;0.55;93.44
27643;BME280;15053;48.618;10.024;2023-01-26T00:08:49;94611.53;;;0.57;93.66
27643;BME280;15053;48.618;10.024;2023-01-26T00:11:19;94611.53;;;0.57;92.83
27643;BME280;15053;48.618;10.024;2023-01-26T00:13:49;94615.09;;;0.56;93.33
27643;BME280;15053;48.618;10.024;2023-01-26T00:16:15;94612.72;;;0.55;93.36
27643;BME280;15053;48.618;10.024;2023-01-26T00:18:42;94616.50;;;0.52;92.76
27643;BME280;15053;48.618;10.024;2023-01-26T00:21:15;94611.25;;;0.47;92.40
27643;BME280;15053;48.618;10.024;2023-01-26T00:23:43;94601.44;;;0.44;92.41
27643;BME280;15053;48.618;10.024;2023-01-26T00:26:13;94600.31;;;0.40;92.91
27643;BME280;15053;48.618;10.024;2023-01-26T00:28:40;94605.63;;;0.39;92.90
27643;BME280;15053;48.618;10.024;2023-01-26T00:31:11;94593.47;;;0.34;92.67
27643;BME280;15053;48.618;10.024;2023-01-26T00:33:38;94597.81;;;0.34;93.34
27643;BME280;15053;48.618;10.024;2023-01-26T00:36:05;94593.84;;;0.38;92.91
27643;BME280;15053;48.618;10.024;2023-01-26T00:38:31;94601.09;;;0.41;92.79
27643;BME280;15053;48.618;10.024;2023-01-26T00:40:59;94594.75;;;0.43;92.39
27643;BME280;15053;48.618;10.024;2023-01-26T00:43:26;94586.66;;;0.46;93.13
27643;BME280;15053;48.618;10.024;2023-01-26T00:45:52;94581.28;;;0.48;93.31
27643;BME280;15053;48.618;10.024;2023-01-26T00:48:19;94576.16;;;0.48;93.01
27643;BME280;15053;48.618;10.024;2023-01-26T00:50:50;94572.63;;;0.49;92.75
27643;BME280;15053;48.618;10.024;2023-01-26T00:53:17;94578.06;;;0.52;92.86
27643;BME280;15053;48.618;10.024;2023-01-26T00:55:44;94574.94;;;0.50;93.24
27643;BME280;15053;48.618;10.024;2023-01-26T00:58:10;94579.41;;;0.55;92.38
27643;BME280;15053;48.618;10.024;2023-01-26T01:00:37;94561.94;;;0.52;92.58
27643;BME280;15053;48.618;10.024;2023-01-26T01:03:05;94564.69;;;0.50;92.74
27643;BME280;15053;48.618;10.024;2023-01-26T01:05:32;94563.00;;;0.44;91.77
27643;BME280;15053;48.618;10.024;2023-01-26T01:07:59;94571.13;;;0.41;91.94
27643;BME280;15053;48.618;10.024;2023-01-26T01:10:26;94568.78;;;0.40;91.79
27643;BME280;15053;48.618;10.024;2023-01-26T01:12:53;94557.97;;;0.38;92.62
27643;BME280;15053;48.618;10.024;2023-01-26T01:15:22;94562.69;;;0.41;92.24
27643;BME280;15053;48.618;10.024;2023-01-26T01:17:48;94552.63;;;0.39;92.57
27643;BME280;15053;48.618;10.024;2023-01-26T01:20:15;94554.84;;;0.36;92.53
27643;BME280;15053;48.618;10.024;2023-01-26T01:22:42;94549.16;;;0.34;92.43
27643;BME280;15053;48.618;10.024;2023-01-26T01:25:08;94551.28;;;0.37;92.72
27643;BME280;15053;48.618;10.024;2023-01-26T01:27:35;94546.81;;;0.32;91.68
27643;BME280;15053;48.618;10.024;2023-01-26T01:30:02;94544.88;;;0.28;91.72
27643;BME280;15053;48.618;10.024;2023-01-26T01:32:34;94538.34;;;0.32;92.94
27643;BME280;15053;48.618;10.024;2023-01-26T01:35:01;94534.22;;;0.31;92.11
27643;BME280;15053;48.618;10.024;2023-01-26T01:37:29;94526.22;;;0.39;92.20
27643;BME280;15053;48.618;10.024;2023-01-26T01:39:55;94534.06;;;0.44;92.06
27643;BME280;15053;48.618;10.024;2023-01-26T01:42:22;94526.94;;;0.46;92.49
27643;BME280;15053;48.618;10.024;2023-01-26T01:47:55;94532.41;;;0.49;92.49
27643;BME280;15053;48.618;10.024;2023-01-26T01:50:23;94516.47;;;0.47;92.63
27643;BME280;15053;48.618;10.024;2023-01-26T01:52:53;94513.13;;;0.47;92.09
27643;BME280;15053;48.618;10.024;2023-01-26T01:55:22;94512.69;;;0.50;92.85
27643;BME280;15053;48.618;10.024;2023-01-26T01:57:54;94507.91;;;0.53;92.49
27643;BME280;15053;48.618;10.024;2023-01-26T02:00:24;94514.38;;;0.56;92.47
27643;BME280;15053;48.618;10.024;2023-01-26T02:02:57;94516.38;;;0.54;92.11
27643;BME280;15053;48.618;10.024;2023-01-26T02:05:43;94512.25;;;0.53;91.97
27643;BME280;15053;48.618;10.024;2023-01-26T02:08:13;94505.13;;;0.55;92.08
27643;BME280;15053;48.618;10.024;2023-01-26T02:10:48;94507.91;;;0.53;92.34
27643;BME280;15053;48.618;10.024;2023-01-26T02:13:17;94494.63;;;0.45;91.56
27643;BME280;15053;48.618;10.024;2023-01-26T02:15:43;94491.50;;;0.43;91.53
27643;BME280;15053;48.618;10.024;2023-01-26T02:18:10;94495.06;;;0.42;92.03
27643;BME280;15053;48.618;10.024;2023-01-26T02:20:52;94494.28;;;0.41;91.05
27643;BME280;15053;48.618;10.024;2023-01-26T02:23:54;94485.06;;;0.40;91.24
27643;BME280;15053;48.618;10.024;2023-01-26T02:26:25;94477.00;;;0.37;91.28
27643;BME280;15053;48.618;10.024;2023-01-26T02:28:53;94473.91;;;0.35;90.67
27643;BME280;15053;48.618;10.024;2023-01-26T02:31:22;94467.75;;;0.36;90.88
27643;BME280;15053;48.618;10.024;2023-01-26T02:33:49;94468.78;;;0.35;90.67
27643;BME280;15053;48.618;10.024;2023-01-26T02:36:21;94464.63;;;0.34;90.46
27643;BME280;15053;48.618;10.024;2023-01-26T02:41:34;94465.19;;;0.36;90.67
27643;BME280;15053;48.618;10.024;2023-01-26T02:44:20;94470.13;;;0.37;90.38
27643;BME280;15053;48.618;10.024;2023-01-26T02:46:47;94470.66;;;0.39;91.09
27643;BME280;15053;48.618;10.024;2023-01-26T02:49:14;94468.34;;;0.38;90.51
27643;BME280;15053;48.618;10.024;2023-01-26T02:52:00;94470.19;;;0.31;90.72
27643;BME280;15053;48.618;10.024;2023-01-26T02:54:26;94472.44;;;0.27;89.56
27643;BME280;15053;48.618;10.024;2023-01-26T02:57:11;94471.09;;;0.25;90.36
27643;BME280;15053;48.618;10.024;2023-01-26T02:59:39;94471.53;;;0.22;90.40
27643;BME280;15053;48.618;10.024;2023-01-26T03:02:06;94463.25;;;0.20;90.16
27643;BME280;15053;48.618;10.024;2023-01-26T03:04:32;94450.69;;;0.18;90.24
27643;BME280;15053;48.618;10.024;2023-01-26T03:06:59;94454.47;;;0.16;90.04
27643;BME280;15053;48.618;10.024;2023-01-26T03:09:25;94457.16;;;0.21;90.95
27643;BME280;15053;48.618;10.024;2023-01-26T03:11:52;94454.03;;;0.19;91.13
27643;BME280;15053;48.618;10.024;2023-01-26T03:14:18;94447.13;;;0.19;90.74
27643;BME280;15053;48.618;10.024;2023-01-26T03:16:45;94450.88;;;0.17;90.46
27643;BME280;15053;48.618;10.024;2023-01-26T03:19:12;94455.25;;;0.16;90.71
27643;BME280;15053;48.618;10.024;2023-01-26T03:21:58;94450.13;;;0.16;90.59
27643;BME280;15053;48.618;10.024;2023-01-26T03:24:44;94451.34;;;0.14;91.24
27643;BME280;15053;48.618;10.024;2023-01-26T03:27:36;94455.69;;;0.13;90.61
27643;BME280;15053;48.618;10.024;2023-01-26T03:30:04;94450.19;;;0.10;91.21
27643;BME280;15053;48.618;10.024;2023-01-26T03:32:31;94455.09;;;0.11;91.24
27643;BME280;15053;48.618;10.024;2023-01-26T03:34:58;94449.22;;;0.11;91.09
27643;BME280;15053;48.618;10.024;2023-01-26T03:37:25;94446.66;;;0.11;91.65
27643;BME280;15053;48.618;10.024;2023-01-26T03:40:05;94448.91;;;0.19;90.71
27643;BME280;15053;48.618;10.024;2023-01-26T03:42:50;94443.34;;;0.22;90.53
27643;BME280;15053;48.618;10.024;2023-01-26T03:45:35;94443.91;;;0.24;91.27
27643;BME280;15053;48.618;10.024;2023-01-26T03:48:23;94441.00;;;0.20;90.86
27643;BME280;15053;48.618;10.024;2023-01-26T03:51:09;94442.34;;;0.23;91.67
27643;BME280;15053;48.618;10.024;2023-01-26T03:53:55;94441.00;;;0.20;90.74
27643;BME280;15053;48.618;10.024;2023-01-26T03:56:40;94437.97;;;0.12;90.75
27643;BME280;15053;48.618;10.024;2023-01-26T03:59:11;94440.19;;;0.08;91.41
27643;BME280;15053;48.618;10.024;2023-01-26T04:01:44;94443.38;;;0.04;90.70
27643;BME280;15053;48.618;10.024;2023-01-26T04:04:30;94432.34;;;-0.09;90.32
27643;BME280;15053;48.618;10.024;2023-01-26T04:07:18;94435.09;;;-0.10;90.40
27643;BME280;15053;48.618;10.024;2023-01-26T04:10:03;94430.63;;;-0.15;90.71
27643;BME280;15053;48.618;10.024;2023-01-26T04:12:30;94431.06;;;-0.18;90.75
27643;BME280;15053;48.618;10.024;2023-01-26T04:15:14;94435.63;;;-0.20;90.86
27643;BME280;15053;48.618;10.024;2023-01-26T04:18:05;94430.59;;;-0.26;91.38
27643;BME280;15053;48.618;10.024;2023-01-26T04:20:50;94426.91;;;-0.30;90.40
27643;BME280;15053;48.618;10.024;2023-01-26T04:23:38;94432.22;;;-0.32;90.73
27643;BME280;15053;48.618;10.024;2023-01-26T04:26:05;94429.00;;;-0.27;91.26
27643;BME280;15053;48.618;10.024;2023-01-26T04:28:32;94431.50;;;-0.21;92.03
27643;BME280;15053;48.618;10.024;2023-01-26T04:30:59;94428.09;;;-0.15;91.93
27643;BME280;15053;48.618;10.024;2023-01-26T04:33:25;94424.72;;;-0.15;91.87
27643;BME280;15053;48.618;10.024;2023-01-26T04:35:52;94423.38;;;-0.18;91.96
27643;BME280;15053;48.618;10.024;2023-01-26T04:38:19;94416.69;;;-0.19;92.18
27643;BME280;15053;48.618;10.024;2023-01-26T04:40:52;94421.38;;;-0.16;91.28
27643;BME280;15053;48.618;10.024;2023-01-26T04:43:19;94423.94;;;-0.16;91.10
27643;BME280;15053;48.618;10.024;2023-01-26T04:45:59;94418.97;;;-0.11;91.49
27643;BME280;15053;48.618;10.024;2023-01-26T04:48:28;94400.91;;;-0.16;91.25
27643;BME280;15053;48.618;10.024;2023-01-26T04:50:56;94414.28;;;-0.14;91.02
27643;BME280;15053;48.618;10.024;2023-01-26T04:53:23;94417.84;;;-0.15;90.97
27643;BME280;15053;48.618;10.024;2023-01-26T04:55:50;94409.03;;;-0.19;91.62
27643;BME280;15053;48.618;10.024;2023-01-26T04:58:17;94414.16;;;-0.19;91.49
27643;BME280;15053;48.618;10.024;2023-01-26T05:00:52;94406.81;;;-0.15;90.91
27643;BME280;15053;48.618;10.024;2023-01-26T05:03:19;94414.28;;;-0.14;91.22
27643;BME280;15053;48.618;10.024;2023-01-26T05:05:51;94414.06;;;-0.12;90.84
27643;BME280;15053;48.618;10.024;2023-01-26T05:08:21;94407.97;;;-0.11;90.87
27643;BME280;15053;48.618;10.024;2023-01-26T05:10:48;94409.31;;;-0.09;91.96
27643;BME280;15053;48.618;10.024;2023-01-26T05:13:39;94401.97;;;-0.05;91.13
27643;BME280;15053;48.618;10.024;2023-01-26T05:16:23;94411.44;;;-0.06;90.89
27643;BME280;15053;48.618;10.024;2023-01-26T05:19:19;94407.19;;;-0.12;91.43
27643;BME280;15053;48.618;10.024;2023-01-26T05:22:11;94407.19;;;-0.12;90.83
27643;BME280;15053;48.618;10.024;2023-01-26T05:24:44;94399.69;;;-0.13;91.21
27643;BME280;15053;48.618;10.024;2023-01-26T05:27:24;94405.84;;;-0.14;91.12
27643;BME280;15053;48.618;10.024;2023-01-26T05:29:56;94413.50;;;-0.14;91.83
27643;BME280;15053;48.618;10.024;2023-01-26T05:32:27;94410.16;;;-0.15;91.01
27643;BME280;15053;48.618;10.024;2023-01-26T05:34:54;94413.16;;;-0.18;91.21
27643;BME280;15053;48.618;10.024;2023-01-26T05:37:23;94416.28;;;-0.16;92.13
27643;BME280;15053;48.618;10.024;2023-01-26T05:39:50;94412.06;;;-0.10;91.72
27643;BME280;15053;48.618;10.024;2023-01-26T05:42:18;94424.34;;;-0.01;92.16
27643;BME280;15053;48.618;10.024;2023-01-26T05:44:44;94411.88;;;0.03;92.41
27643;BME280;15053;48.618;10.024;2023-01-26T05:47:13;94415.22;;;0.04;92.35
27643;BME280;15053;48.618;10.024;2023-01-26T05:49:41;94420.34;;;0.04;92.25
27643;BME280;15053;48.618;10.024;2023-01-26T05:52:15;94426.69;;;0.01;91.42
27643;BME280;15053;48.618;10.024;2023-01-26T05:54:42;94433.16;;;0.04;91.59
27643;BME280;15053;48.618;10.024;2023-01-26T05:57:09;94437.28;;;0.05;91.53
27643;BME280;15053;48.618;10.024;2023-01-26T05:59:42;94434.50;;;0.06;91.76
27643;BME280;15053;48.618;10.024;2023-01-26T06:02:10;94440.81;;;0.04;91.22
27643;BME280;15053;48.618;10.024;2023-01-26T06:04:39;94438.25;;;0.04;91.16
27643;BME280;15053;48.618;10.024;2023-01-26T06:07:06;94433.38;;;0.02;90.81
27643;BME280;15053;48.618;10.024;2023-01-26T06:09:40;94433.38;;;0.02;90.80
27643;BME280;15053;48.618;10.024;2023-01-26T06:12:23;94438.69;;;0.00;91.12
27643;BME280;15053;48.618;10.024;2023-01-26T06:14:56;94441.25;;;0.00;91.06
27643;BME280;15053;48.618;10.024;2023-01-26T06:17:31;94436.91;;;0.01;91.29
27643;BME280;15053;48.618;10.024;2023-01-26T06:20:00;94439.28;;;0.03;92.14
27643;BME280;15053;48.618;10.024;2023-01-26T06:22:29;94438.94;;;-0.01;91.19
27643;BME280;15053;48.618;10.024;2023-01-26T06:24:57;94442.47;;;-0.02;91.87
27643;BME280;15053;48.618;10.024;2023-01-26T06:27:24;94434.25;;;-0.04;91.03
27643;BME280;15053;48.618;10.024;2023-01-26T06:29:51;94439.59;;;-0.06;91.79
27643;BME280;15053;48.618;10.024;2023-01-26T06:32:18;94428.75;;;-0.08;91.68
27643;BME280;15053;48.618;10.024;2023-01-26T06:34:49;94421.50;;;-0.11;91.53
27643;BME280;15053;48.618;10.024;2023-01-26T06:37:18;94435.03;;;-0.04;91.78
27643;BME280;15053;48.618;10.024;2023-01-26T06:39:45;94432.22;;;-0.02;91.49
27643;BME280;15053;48.618;10.024;2023-01-26T06:42:12;94429.47;;;-0.01;91.55
27643;BME280;15053;48.618;10.024;2023-01-26T06:44:38;94432.59;;;0.02;91.56
27643;BME280;15053;48.618;10.024;2023-01-26T06:47:06;94432.03;;;-0.01;91.44
27643;BME280;15053;48.618;10.024;2023-01-26T06:49:33;94427.22;;;-0.09;92.05
27643;BME280;15053;48.618;10.024;2023-01-26T06:52:15;94423.09;;;-0.10;92.28
27643;BME280;15053;48.618;10.024;2023-01-26T06:54:49;94425.13;;;0.00;91.80
27643;BME280;15053;48.618;10.024;2023-01-26T06:57:15;94419.00;;;0.01;92.39
27643;BME280;15053;48.618;10.024;2023-01-26T07:00:02;94427.41;;;0.08;91.96
27643;BME280;15053;48.618;10.024;2023-01-26T07:02:37;94421.06;;;0.11;92.45
27643;BME280;15053;48.618;10.024;2023-01-26T07:05:03;94425.28;;;0.17;92.62
27643;BME280;15053;48.618;10.024;2023-01-26T07:07:30;94426.28;;;0.16;91.41
27643;BME280;15053;48.618;10.024;2023-01-26T07:09:56;94424.53;;;0.16;92.17
27643;BME280;15053;48.618;10.024;2023-01-26T07:12:23;94418.50;;;0.11;91.63
27643;BME280;15053;48.618;10.024;2023-01-26T07:14:50;94425.75;;;0.14;91.77
27643;BME280;15053;48.618;10.024;2023-01-26T07:17:17;94423.75;;;0.16;91.85
27643;BME280;15053;48.618;10.024;2023-01-26T07:19:43;94424.72;;;0.15;92.07
27643;BME280;15053;48.618;10.024;2023-01-26T07:22:13;94418.50;;;0.11;91.67
27643;BME280;15053;48.618;10.024;2023-01-26T07:24:39;94428.84;;;0.16;91.66
27643;BME280;15053;48.618;10.024;2023-01-26T07:27:05;94423.63;;;0.11;91.73
27643;BME280;15053;48.618;10.024;2023-01-26T07:29:32;94428.59;;;0.06;91.81
27643;BME280;15053;48.618;10.024;2023-01-26T07:31:59;94418.81;;;0.03;91.15
27643;BME280;15053;48.618;10.024;2023-01-26T07:34:25;94427.13;;;-0.02;90.86
27643;BME280;15053;48.618;10.024;2023-01-26T07:36:51;94425.91;;;0.00;91.87
27643;BME280;15053;48.618;10.024;2023-01-26T07:39:18;94425.47;;;0.04;91.14
27643;BME280;15053;48.618;10.024;2023-01-26T07:41:44;94429.38;;;0.06;91.25
27643;BME280;15053;48.618;10.024;2023-01-26T07:44:32;94427.03;;;0.05;91.21
27643;BME280;15053;48.618;10.024;2023-01-26T07:46:58;94422.91;;;0.04;91.62
27643;BME280;15053;48.618;10.024;2023-01-26T07:49:25;94425.47;;;0.04;91.52
27643;BME280;15053;48.618;10.024;2023-01-26T07:51:51;94426.03;;;0.06;91.47
27643;BME280;15053;48.618;10.024;2023-01-26T07:54:19;94417.22;;;0.02;91.35
27643;BME280;15053;48.618;10.024;2023-01-26T07:56:50;94420.91;;;0.06;91.05
27643;BME280;15053;48.618;10.024;2023-01-26T07:59:16;94418.56;;;0.04;91.49
27643;BME280;15053;48.618;10.024;2023-01-26T08:01:43;94409.78;;;0.00;91.39
27643;BME280;15053;48.618;10.024;2023-01-26T08:04:09;94412.13;;;0.02;91.51
27643;BME280;15053;48.618;10.024;2023-01-26T08:06:37;94411.75;;;-0.02;91.79
27643;BME280;15053;48.618;10.024;2023-01-26T08:09:03;94416.56;;;-0.06;91.06
27643;BME280;15053;48.618;10.024;2023-01-26T08:11:30;94405.41;;;-0.11;91.25
27643;BME280;15053;48.618;10.024;2023-01-26T08:13:56;94409.16;;;-0.14;92.10
27643;BME280;15053;48.618;10.024;2023-01-26T08:16:23;94410.72;;;-0.13;91.91
27643;BME280;15053;48.618;10.024;2023-01-26T08:18:49;94414.97;;;-0.07;92.33
27643;BME280;15053;48.618;10.024;2023-01-26T08:21:17;94405.97;;;-0.09;92.07
27643;BME280;15053;48.618;10.024;2023-01-26T08:23:48;94406.88;;;-0.04;90.92
27643;BME280;15053;48.618;10.024;2023-01-26T08:26:15;94411.44;;;-0.06;91.66
27643;BME280;15053;48.618;10.024;2023-01-26T08:28:43;94401.84;;;-0.10;91.50
27643;BME280;15053;48.618;10.024;2023-01-26T08:31:19;94400.75;;;-0.03;91.69
27643;BME280;15053;48.618;10.024;2023-01-26T08:33:48;94407.66;;;-0.03;91.09
27643;BME280;15053;48.618;10.024;2023-01-26T08:36:20;94397.53;;;0.02;91.58
27643;BME280;15053;48.618;10.024;2023-01-26T08:38:48;94409.81;;;0.12;92.06
27643;BME280;15053;48.618;10.024;2023-01-26T08:41:14;94406.94;;;0.20;91.62
27643;BME280;15053;48.618;10.024;2023-01-26T08:43:41;94407.50;;;0.22;91.20
27643;BME280;15053;48.618;10.024;2023-01-26T08:46:08;94399.94;;;0.27;91.77
27643;BME280;15053;48.618;10.024;2023-01-26T08:48:35;94407.19;;;0.30;90.98
27643;BME280;15053;48.618;10.024;2023-01-26T08:51:04;94406.75;;;0.33;91.35
27643;BME280;15053;48.618;10.024;2023-01-26T08:53:32;94401.06;;;0.31;90.33
27643;BME280;15053;48.618;10.024;2023-01-26T08:56:03;94404.06;;;0.28;91.26
27643;BME280;15053;48.618;10.024;2023-01-26T08:58:30;94393.25;;;0.26;90.65
27643;BME280;15053;48.618;10.024;2023-01-26T09:00:58;94390.25;;;0.29;91.19
27643;BME280;15053;48.618;10.024;2023-01-26T09:03:25;94387.47;;;0.30;90.22
27643;BME280;15053;48.618;10.024;2023-01-26T09:05:51;94388.69;;;0.28;91.02
27643;BME280;15053;48.618;10.024;2023-01-26T09:08:17;94391.91;;;0.23;90.47
27643;BME280;15053;48.618;10.024;2023-01-26T09:10:44;94392.59;;;0.19;90.98
27643;BME280;15053;48.618;10.024;2023-01-26T09:13:10;94395.78;;;0.14;90.34
27643;BME280;15053;48.618;10.024;2023-01-26T09:15:37;94397.22;;;0.10;90.27
27643;BME280;15053;48.618;10.024;2023-01-26T09:18:04;94395.09;;;0.07;89.87
27643;BME280;15053;48.618;10.024;2023-01-26T09:20:30;94393.88;;;0.10;91.20
27643;BME280;15053;48.618;10.024;2023-01-26T09:22:57;94403.25;;;0.16;90.95
27643;BME280;15053;48.618;10.024;2023-01-26T09:25:23;94391.13;;;0.23;90.39
27643;BME280;15053;48.618;10.024;2023-01-26T09:27:50;94396.84;;;0.25;91.24
27643;BME280;15053;48.618;10.024;2023-01-26T09:30:16;94387.59;;;0.24;90.36
27643;BME280;15053;48.618;10.024;2023-01-26T09:32:43;94389.91;;;0.25;91.00
27643;BME280;15053;48.618;10.024;2023-01-26T09:35:09;94396.03;;;0.24;90.53
27643;BME280;15053;48.618;10.024;2023-01-26T09:37:40;94394.91;;;0.20;90.50
27643;BME280;15053;48.618;10.024;2023-01-26T09:40:15;94393.81;;;0.16;90.17
27643;BME280;15053;48.618;10.024;2023-01-26T09:43:13;94389.25;;;0.18;90.04
27643;BME280;15053;48.618;10.024;2023-01-26T09:48:36;94394.03;;;0.26;90.41
27643;BME280;15053;48.618;10.024;2023-01-26T09:51:11;94391.25;;;0.28;91.19
27643;BME280;15053;48.618;10.024;2023-01-26T09:53:44;94385.56;;;0.26;90.63
27643;BME280;15053;48.618;10.024;2023-01-26T09:56:17;94399.41;;;0.25;90.52
27643;BME280;15053;48.618;10.024;2023-01-26T09:58:48;94400.59;;;0.22;89.82
27643;BME280;15053;48.618;10.024;2023-01-26T10:01:28;94397.28;;;0.22;90.45
27643;BME280;15053;48.618;10.024;2023-01-26T10:04:03;94399.25;;;0.20;90.23
27643;BME280;15053;48.618;10.024;2023-01-26T10:06:37;94392.34;;;0.20;89.41
27643;BME280;15053;48.618;10.024;2023-01-26T10:09:14;94387.22;;;0.20;89.78
27643;BME280;15053;48.618;10.024;2023-01-26T10:11:45;94389.72;;;0.27;90.08
27643;BME280;15053;48.618;10.024;2023-01-26T10:16:50;94388.72;;;0.39;90.44
27643;BME280;15053;48.618;10.024;2023-01-26T10:21:58;94399.31;;;0.43;89.85
27643;BME280;15053;48.618;10.024;2023-01-26T10:24:27;94400.41;;;0.47;89.37
27643;BME280;15053;48.618;10.024;2023-01-26T10:26:56;94394.66;;;0.51;89.71
27643;BME280;15053;48.618;10.024;2023-01-26T10:29:23;94399.09;;;0.56;89.47
27643;BME280;15053;48.618;10.024;2023-01-26T10:31:49;94409.69;;;0.59;89.92
27643;BME280;15053;48.618;10.024;2023-01-26T10:34:21;94398.22;;;0.62;90.40
27643;BME280;15053;48.618;10.024;2023-01-26T10:36:49;94400.34;;;0.65;90.07
27643;BME280;15053;48.618;10.024;2023-01-26T10:39:16;94405.03;;;0.68;89.38
27643;BME280;15053;48.618;10.024;2023-01-26T10:42:01;94405.81;;;0.69;89.51
27643;BME280;15053;48.618;10.024;2023-01-26T10:44:37;94395.75;;;0.67;89.13
27643;BME280;15053;48.618;10.024;2023-01-26T10:47:14;94403.13;;;0.75;89.02
27643;BME280;15053;48.618;10.024;2023-01-26T10:49:41;94402.03;;;0.71;88.27
27643;BME280;15053;48.618;10.024;2023-01-26T10:55:11;94406.44;;;0.64;88.02
27643;BME280;15053;48.618;10.024;2023-01-26T10:57:40;94400.22;;;0.60;87.84
27643;BME280;15053;48.618;10.024;2023-01-26T11:00:28;94405.66;;;0.64;88.71
27643;BME280;15053;48.618;10.024;2023-01-26T11:03:04;94399.66;;;0.58;88.61
27643;BME280;15053;48.618;10.024;2023-01-26T11:05:31;94394.31;;;0.59;88.60
27643;BME280;15053;48.618;10.024;2023-01-26T11:07:57;94396.66;;;0.61;88.25
27643;BME280;15053;48.618;10.024;2023-01-26T11:13:17;94391.97;;;0.58;88.06
27643;BME280;15053;48.618;10.024;2023-01-26T11:21:12;94384.72;;;0.43;87.91
27643;BME280;15053;48.618;10.024;2023-01-26T11:24:14;94377.59;;;0.45;87.94
27643;BME280;15053;48.618;10.024;2023-01-26T11:27:03;94384.50;;;0.45;88.02
27643;BME280;15053;48.618;10.024;2023-01-26T11:29:55;94366.22;;;0.41;87.97
27643;BME280;15053;48.618;10.024;2023-01-26T11:35:55;94373.59;;;0.49;87.70
27643;BME280;15053;48.618;10.024;2023-01-26T11:38:35;94373.69;;;0.43;88.25
27643;BME280;15053;48.618;10.024;2023-01-26T11:41:37;94372.13;;;0.42;87.72
27643;BME280;15053;48.618;10.024;2023-01-26T11:44:20;94365.78;;;0.44;88.41
27643;BME280;15053;48.618;10.024;2023-01-26T11:46:58;94355.66;;;0.49;88.74
27643;BME280;15053;48.618;10.024;2023-01-26T11:49:41;94363.66;;;0.53;88.95
27643;BME280;15053;48.618;10.024;2023-01-26T11:52:33;94358.09;;;0.56;88.95
27643;BME280;15053;48.618;10.024;2023-01-26T11:55:33;94357.66;;;0.59;88.94
27643;BME280;15053;48.618;10.024;2023-01-26T11:58:29;94350.97;;;0.58;88.40
27643;BME280;15053;48.618;10.024;2023-01-26T12:01:27;94348.31;;;0.53;88.25
27643;BME280;15053;48.618;10.024;2023-01-26T12:03:56;94338.50;;;0.50;88.44
27643;BME280;15053;48.618;10.024;2023-01-26T12:06:29;94350.56;;;0.49;88.39
27643;BME280;15053;48.618;10.024;2023-01-26T12:09:04;94348.19;;;0.48;88.66
27643;BME280;15053;48.618;10.024;2023-01-26T12:17:14;94346.94;;;0.39;88.98
27643;BME280;15053;48.618;10.024;2023-01-26T12:19:51;94339.84;;;0.41;88.57
27643;BME280;15053;48.618;10.024;2023-01-26T12:22:37;94335.03;;;0.44;89.07
27643;BME280;15053;48.618;10.024;2023-01-26T12:25:39;94335.72;;;0.40;89.03
27643;BME280;15053;48.618;10.024;2023-01-26T12:28:33;94335.59;;;0.35;89.62
27643;BME280;15053;48.618;10.024;2023-01-26T12:31:03;94327.69;;;0.36;88.86
27643;BME280;15053;48.618;10.024;2023-01-26T12:33:35;94326.69;;;0.37;89.55
27643;BME280;15053;48.618;10.024;2023-01-26T12:39:13;94310.00;;;0.35;89.02
27643;BME280;15053;48.618;10.024;2023-01-26T12:44:43;94300.22;;;0.43;89.76
27643;BME280;15053;48.618;10.024;2023-01-26T12:50:04;94302.09;;;0.48;89.29
27643;BME280;15053;48.618;10.024;2023-01-26T12:52:42;94295.88;;;0.44;89.14
27643;BME280;15053;48.618;10.024;2023-01-26T12:55:18;94295.28;;;0.42;89.30
27643;BME280;15053;48.618;10.024;2023-01-26T12:57:53;94294.75;;;0.40;89.00
27643;BME280;15053;48.618;10.024;2023-01-26T13:00:23;94283.38;;;0.36;89.33
27643;BME280;15053;48.618;10.024;2023-01-26T13:02:55;94297.84;;;0.42;89.68
27643;BME280;15053;48.618;10.024;2023-01-26T13:05:26;94291.72;;;0.43;90.08
27643;BME280;15053;48.618;10.024;2023-01-26T13:07:53;94281.50;;;0.43;89.51
27643;BME280;15053;48.618;10.024;2023-01-26T13:10:25;94281.03;;;0.46;90.29
27643;BME280;15053;48.618;10.024;2023-01-26T13:16:33;94281.38;;;0.49;89.99
27643;BME280;15053;48.618;10.024;2023-01-26T13:19:01;94283.59;;;0.46;89.76
27643;BME280;15053;48.618;10.024;2023-01-26T13:26:54;94283.38;;;0.47;89.37
27643;BME280;15053;48.618;10.024;2023-01-26T13:32:00;94282.03;;;0.45;90.04
27643;BME280;15053;48.618;10.024;2023-01-26T13:34:28;94270.91;;;0.39;89.30
27643;BME280;15053;48.618;10.024;2023-01-26T13:37:03;94277.16;;;0.43;90.39
27643;BME280;15053;48.618;10.024;2023-01-26T13:39:36;94281.50;;;0.43;90.02
27643;BME280;15053;48.618;10.024;2023-01-26T13:42:15;94279.59;;;0.38;89.93
27643;BME280;15053;48.618;10.024;2023-01-26T13:44:47;94281.81;;;0.35;89.76
27643;BME280;15053;48.618;10.024;2023-01-26T13:47:19;94287.06;;;0.40;90.13
27643;BME280;15053;48.618;10.024;2023-01-26T13:49:48;94287.59;;;0.42;90.18
27643;BME280;15053;48.618;10.024;2023-01-26T13:52:24;94280.72;;;0.42;89.57
27643;BME280;15053;48.618;10.024;2023-01-26T13:54:53;94281.50;;;0.43;89.86
27643;BME280;15053;48.618;10.024;2023-01-26T13:57:27;94287.06;;;0.40;89.48
27643;BME280;15053;48.618;10.024;2023-01-26T13:59:58;94293.41;;;0.37;89.34
27643;BME280;15053;48.618;10.024;2023-01-26T14:02:28;94292.63;;;0.37;90.36
27643;BME280;15053;48.618;10.024;2023-01-26T14:04:58;94295.72;;;0.39;89.55
27643;BME280;15053;48.618;10.024;2023-01-26T14:07:38;94291.63;;;0.38;90.19
27643;BME280;15053;48.618;10.024;2023-01-26T14:10:06;94293.75;;;0.41;90.02
27643;BME280;15053;48.618;10.024;2023-01-26T14:12:38;94285.19;;;0.35;89.09
27643;BME280;15053;48.618;10.024;2023-01-26T14:15:06;94288.63;;;0.41;90.07
27643;BME280;15053;48.618;10.024;2023-01-26T14:17:35;94292.84;;;0.47;89.20